createdAt,value
2019-03-19T00:01:15.270Z,99.90
2019-03-19T00:03:43.238Z,99.90
2019-03-19T00:06:10.956Z,99.90
2019-03-19T00:08:43.720Z,99.90
2019-03-19T00:11:11.804Z,99.90
2019-03-19T00:13:39.661Z,99.90
2019-03-19T00:16:07.863Z,99.90
2019-03-19T00:18:35.296Z,99.90
2019-03-19T00:21:02.652Z,99.90
2019-03-19T00:23:30.849Z,99.90
2019-03-19T00:25:58.546Z,99.90
2019-03-19T00:28:26.252Z,99.90
2019-03-19T00:30:53.692Z,99.90
2019-03-19T00:33:21.197Z,99.90
2019-03-19T00:35:49.440Z,99.90
2019-03-19T00:38:17.277Z,99.90
2019-03-19T00:40:46.394Z,99.90
2019-03-19T00:43:13.828Z,99.90
2019-03-19T00:45:41.704Z,99.90
2019-03-19T00:48:09.263Z,99.90
2019-03-19T00:50:37.446Z,99.90
2019-03-19T00:53:05.007Z,99.90
2019-03-19T00:55:40.764Z,99.90
2019-03-19T00:58:02.357Z,99.90
2019-03-19T01:00:29.769Z,99.90
2019-03-19T01:02:57.648Z,99.90
2019-03-19T01:05:25.452Z,99.90
2019-03-19T01:07:52.979Z,99.90
2019-03-19T01:10:20.858Z,99.90
2019-03-19T01:12:48.602Z,99.90
2019-03-19T01:15:16.218Z,99.90
2019-03-19T01:17:44.142Z,99.90
2019-03-19T01:20:11.871Z,99.90
2019-03-19T01:22:39.591Z,99.90
2019-03-19T01:25:08.745Z,99.90
2019-03-19T01:27:39.498Z,99.90
2019-03-19T01:30:08.889Z,99.90
2019-03-19T01:32:36.901Z,99.90
2019-03-19T01:35:05.218Z,99.90
2019-03-19T01:39:58.370Z,99.90
2019-03-19T01:42:25.744Z,99.90
2019-03-19T01:44:52.894Z,99.90
2019-03-19T01:47:20.657Z,99.90
2019-03-19T01:49:48.975Z,99.90
2019-03-19T01:52:16.874Z,99.90
2019-03-19T01:54:44.424Z,99.90
2019-03-19T01:57:11.837Z,99.90
2019-03-19T01:59:39.719Z,99.90
2019-03-19T02:02:07.142Z,99.90
2019-03-19T02:04:35.760Z,99.90
2019-03-19T02:07:04.149Z,99.90
2019-03-19T02:09:31.844Z,99.90
2019-03-19T02:11:59.239Z,99.90
2019-03-19T02:14:27.159Z,99.90
2019-03-19T02:16:54.989Z,99.90
2019-03-19T02:19:22.368Z,99.90
2019-03-19T02:21:49.811Z,99.90
2019-03-19T02:24:17.451Z,99.90
2019-03-19T02:26:44.997Z,99.90
2019-03-19T02:29:12.429Z,99.90
2019-03-19T02:31:40.224Z,99.90
2019-03-19T02:34:07.647Z,99.90
2019-03-19T02:36:35.081Z,99.90
2019-03-19T02:39:04.377Z,99.90
2019-03-19T02:41:32.213Z,99.90
2019-03-19T02:43:59.916Z,99.90
2019-03-19T02:46:28.014Z,99.90
2019-03-19T02:48:55.879Z,99.90
2019-03-19T02:51:24.118Z,99.90
2019-03-19T02:53:51.672Z,99.90
2019-03-19T02:56:31.898Z,99.90
2019-03-19T02:58:49.537Z,99.90
2019-03-19T03:01:17.263Z,99.90
2019-03-19T03:03:45.214Z,99.90
2019-03-19T03:06:13.330Z,99.90
2019-03-19T03:08:40.666Z,99.90
2019-03-19T03:11:08.248Z,99.90
2019-03-19T03:13:36.001Z,99.90
2019-03-19T03:16:03.820Z,99.90
2019-03-19T03:18:31.245Z,99.90
2019-03-19T03:20:59.148Z,99.90
2019-03-19T03:23:26.585Z,99.90
2019-03-19T03:25:54.728Z,99.90
2019-03-19T03:28:22.248Z,99.90
2019-03-19T03:30:50.474Z,99.90
2019-03-19T03:33:18.322Z,99.90
2019-03-19T03:35:46.000Z,99.90
2019-03-19T03:38:14.672Z,99.90
2019-03-19T03:40:42.381Z,99.90
2019-03-19T03:43:10.156Z,99.90
2019-03-19T03:45:37.774Z,99.90
2019-03-19T03:48:06.203Z,99.90
2019-03-19T03:50:34.081Z,99.90
2019-03-19T03:53:02.047Z,99.90
2019-03-19T03:55:31.276Z,99.90
2019-03-19T03:57:59.096Z,99.90
2019-03-19T04:00:27.640Z,99.90
2019-03-19T04:02:55.288Z,99.90
2019-03-19T04:05:23.175Z,99.90
2019-03-19T04:07:51.189Z,99.90
2019-03-19T04:10:18.749Z,99.90
2019-03-19T04:12:46.489Z,99.90
2019-03-19T04:15:14.361Z,99.90
2019-03-19T04:17:41.934Z,99.90
2019-03-19T04:20:10.412Z,99.90
2019-03-19T04:22:38.688Z,99.90
2019-03-19T04:25:06.792Z,99.90
2019-03-19T04:27:35.029Z,99.90
2019-03-19T04:30:03.281Z,99.90
2019-03-19T04:32:31.147Z,99.90
2019-03-19T04:34:59.147Z,99.90
2019-03-19T04:37:27.364Z,99.90
2019-03-19T04:39:54.866Z,99.90
2019-03-19T04:42:22.625Z,99.90
2019-03-19T04:44:51.027Z,99.90
2019-03-19T04:47:19.022Z,99.90
2019-03-19T04:49:47.361Z,99.90
2019-03-19T04:52:14.817Z,99.90
2019-03-19T04:54:42.391Z,99.90
2019-03-19T04:57:09.723Z,99.90
2019-03-19T04:59:37.312Z,99.90
2019-03-19T05:02:10.090Z,99.90
2019-03-19T05:04:37.392Z,99.90
2019-03-19T05:07:05.237Z,99.90
2019-03-19T05:09:33.564Z,99.90
2019-03-19T05:12:01.934Z,99.90
2019-03-19T05:14:29.591Z,99.90
2019-03-19T05:16:57.513Z,99.90
2019-03-19T05:19:25.307Z,99.90
2019-03-19T05:21:53.233Z,99.90
2019-03-19T05:24:20.661Z,99.90
2019-03-19T05:26:48.217Z,99.90
2019-03-19T05:29:16.249Z,99.90
2019-03-19T05:31:44.008Z,99.90
2019-03-19T05:34:11.845Z,99.90
2019-03-19T05:36:40.163Z,99.90
2019-03-19T05:39:08.032Z,99.90
2019-03-19T05:41:35.410Z,99.90
2019-03-19T05:44:03.166Z,99.90
2019-03-19T05:46:30.975Z,99.90
2019-03-19T05:48:59.320Z,99.90
2019-03-19T05:51:27.506Z,99.90
2019-03-19T05:53:55.558Z,99.90
2019-03-19T05:56:23.615Z,99.90
2019-03-19T05:58:51.566Z,99.90
2019-03-19T06:01:19.292Z,99.90
2019-03-19T06:03:46.823Z,99.90
2019-03-19T06:06:14.740Z,99.90
2019-03-19T06:08:42.890Z,99.90
2019-03-19T06:11:10.891Z,99.90
2019-03-19T06:13:38.821Z,99.90
2019-03-19T06:16:06.449Z,99.90
2019-03-19T06:18:35.447Z,99.90
2019-03-19T06:21:03.709Z,99.90
2019-03-19T06:23:31.490Z,99.90
2019-03-19T06:25:59.093Z,99.90
2019-03-19T06:28:26.791Z,99.90
2019-03-19T06:30:55.138Z,99.90
2019-03-19T06:33:23.232Z,99.90
2019-03-19T06:35:51.461Z,99.90
2019-03-19T06:38:19.700Z,99.90
2019-03-19T06:40:47.247Z,99.90
2019-03-19T06:43:16.206Z,99.90
2019-03-19T06:45:43.531Z,99.90
2019-03-19T06:48:11.076Z,99.90
2019-03-19T06:50:45.213Z,99.90
2019-03-19T06:53:07.473Z,99.90
2019-03-19T06:55:35.271Z,99.90
2019-03-19T06:58:10.472Z,99.90
2019-03-19T07:00:32.226Z,99.90
2019-03-19T07:02:59.613Z,99.90
2019-03-19T07:05:27.301Z,99.90
2019-03-19T07:07:54.774Z,99.90
2019-03-19T07:10:22.209Z,99.90
2019-03-19T07:12:49.620Z,99.90
2019-03-19T07:15:17.420Z,99.90
2019-03-19T07:17:45.265Z,99.90
2019-03-19T07:20:14.080Z,99.90
2019-03-19T07:22:42.269Z,99.90
2019-03-19T07:25:09.991Z,99.90
2019-03-19T07:27:37.765Z,99.90
2019-03-19T07:30:08.384Z,99.90
2019-03-19T07:32:36.212Z,99.90
2019-03-19T07:35:04.010Z,99.90
2019-03-19T07:37:32.440Z,99.90
2019-03-19T07:39:59.860Z,99.90
2019-03-19T07:42:27.259Z,99.90
2019-03-19T07:44:55.407Z,99.90
2019-03-19T07:47:23.286Z,99.90
2019-03-19T07:49:51.619Z,99.90
2019-03-19T07:52:18.924Z,99.90
2019-03-19T07:54:47.299Z,99.90
2019-03-19T07:57:15.237Z,99.90
2019-03-19T07:59:42.704Z,99.90
2019-03-19T08:02:10.307Z,99.90
2019-03-19T08:04:38.077Z,99.90
2019-03-19T08:07:05.947Z,99.90
2019-03-19T08:09:34.311Z,99.90
2019-03-19T08:12:01.823Z,99.90
2019-03-19T08:14:29.521Z,99.90
2019-03-19T08:16:57.295Z,99.90
2019-03-19T08:19:25.119Z,99.90
2019-03-19T08:21:52.877Z,99.90
2019-03-19T08:24:20.618Z,99.90
2019-03-19T08:26:49.198Z,99.90
2019-03-19T08:29:16.806Z,99.90
2019-03-19T08:31:44.858Z,99.90
2019-03-19T08:34:12.634Z,99.90
2019-03-19T08:36:40.111Z,99.90
2019-03-19T08:39:07.708Z,99.90
2019-03-19T08:41:34.866Z,99.90
2019-03-19T08:44:02.516Z,99.90
2019-03-19T08:46:30.078Z,99.90
2019-03-19T08:48:57.780Z,99.90
2019-03-19T08:51:25.770Z,99.90
2019-03-19T08:53:53.647Z,99.90
2019-03-19T08:56:21.484Z,99.90
2019-03-19T08:58:49.026Z,99.90
2019-03-19T09:01:16.565Z,99.90
2019-03-19T09:03:44.365Z,99.90
2019-03-19T09:06:11.665Z,99.90
2019-03-19T09:08:39.851Z,99.90
2019-03-19T09:11:08.003Z,99.90
2019-03-19T09:13:36.054Z,99.90
2019-03-19T09:16:04.268Z,99.90
2019-03-19T09:18:32.026Z,99.90
2019-03-19T09:20:59.931Z,99.90
2019-03-19T09:23:28.010Z,99.90
2019-03-19T09:25:56.514Z,99.90
2019-03-19T09:28:24.359Z,99.90
2019-03-19T09:30:52.033Z,99.90
2019-03-19T09:33:19.817Z,99.90
2019-03-19T09:35:47.112Z,99.90
2019-03-19T09:38:14.614Z,99.90
2019-03-19T09:40:42.069Z,99.90
2019-03-19T09:43:09.964Z,99.90
2019-03-19T09:45:38.099Z,99.90
2019-03-19T09:48:06.124Z,99.90
2019-03-19T09:50:33.414Z,99.90
2019-03-19T09:53:01.389Z,99.90
2019-03-19T09:55:28.813Z,99.90
2019-03-19T09:57:56.535Z,99.90
2019-03-19T10:00:24.366Z,99.90
2019-03-19T10:02:52.335Z,99.90
2019-03-19T10:05:19.995Z,99.90
2019-03-19T10:07:47.825Z,99.90
2019-03-19T10:10:15.969Z,99.90
2019-03-19T10:12:43.612Z,99.90
2019-03-19T10:15:12.023Z,99.90
2019-03-19T10:17:39.872Z,99.90
2019-03-19T10:20:10.579Z,98.50
2019-03-19T10:22:38.583Z,99.90
2019-03-19T10:25:07.593Z,96.10
2019-03-19T10:27:35.592Z,94.80
2019-03-19T10:30:06.501Z,94.50
2019-03-19T10:32:33.695Z,94.10
2019-03-19T10:35:01.429Z,78.10
2019-03-19T10:37:29.243Z,72.90
2019-03-19T10:39:57.324Z,65.70
2019-03-19T10:42:25.043Z,90.70
2019-03-19T10:44:52.794Z,69.80
2019-03-19T10:47:20.523Z,94.00
2019-03-19T10:49:48.040Z,91.30
2019-03-19T10:52:15.640Z,88.00
2019-03-19T10:54:43.531Z,92.80
2019-03-19T10:57:11.455Z,90.00
2019-03-19T10:59:48.737Z,95.70
2019-03-19T11:02:08.977Z,85.40
2019-03-19T11:04:38.517Z,90.80
2019-03-19T11:07:06.424Z,90.20
2019-03-19T11:09:34.364Z,87.40
2019-03-19T11:12:02.041Z,90.80
2019-03-19T11:14:29.607Z,92.00
2019-03-19T11:16:57.172Z,78.90
2019-03-19T11:19:25.213Z,79.60
2019-03-19T11:21:53.015Z,71.90
2019-03-19T11:24:20.701Z,94.00
2019-03-19T11:26:48.113Z,76.60
2019-03-19T11:29:15.857Z,69.40
2019-03-19T11:31:43.246Z,82.30
2019-03-19T11:34:11.053Z,75.90
2019-03-19T11:36:38.750Z,75.60
2019-03-19T11:39:08.245Z,99.90
2019-03-19T11:41:36.127Z,68.50
2019-03-19T11:44:04.319Z,72.30
2019-03-19T11:46:32.498Z,78.60
2019-03-19T11:49:00.129Z,86.20
2019-03-19T11:51:28.232Z,83.00
2019-03-19T11:53:55.903Z,75.40
2019-03-19T11:56:23.471Z,84.40
2019-03-19T11:58:51.655Z,76.60
2019-03-19T12:01:19.502Z,63.50
2019-03-19T12:03:47.116Z,69.60
2019-03-19T12:06:15.228Z,61.30
2019-03-19T12:08:42.799Z,78.90
2019-03-19T12:11:09.992Z,63.20
2019-03-19T12:13:38.107Z,53.30
2019-03-19T12:16:06.036Z,60.70
2019-03-19T12:18:35.237Z,94.50
2019-03-19T12:21:02.899Z,56.30
2019-03-19T12:23:30.171Z,91.40
2019-03-19T12:25:58.551Z,75.40
2019-03-19T12:28:25.896Z,71.50
2019-03-19T12:30:54.917Z,87.20
2019-03-19T12:33:28.857Z,64.50
2019-03-19T12:35:57.857Z,56.90
2019-03-19T12:38:25.594Z,52.00
2019-03-19T12:40:53.608Z,79.30
2019-03-19T12:43:20.782Z,55.40
2019-03-19T12:45:49.047Z,63.80
2019-03-19T12:48:16.822Z,84.40
2019-03-19T12:50:44.537Z,98.80
2019-03-19T12:53:12.111Z,58.40
2019-03-19T12:55:39.999Z,55.60
2019-03-19T12:58:07.545Z,75.50
2019-03-19T13:00:35.233Z,89.40
2019-03-19T13:03:03.040Z,61.30
2019-03-19T13:05:30.573Z,98.50
2019-03-19T13:07:58.583Z,65.30
2019-03-19T13:10:27.117Z,68.00
2019-03-19T13:12:55.226Z,97.20
2019-03-19T13:15:22.778Z,66.00
2019-03-19T13:17:50.555Z,84.40
2019-03-19T13:20:18.499Z,83.80
2019-03-19T13:22:46.433Z,68.20
2019-03-19T13:25:15.474Z,61.90
2019-03-19T13:27:44.044Z,64.00
2019-03-19T13:30:18.892Z,94.30
2019-03-19T13:32:46.823Z,97.00
2019-03-19T13:35:14.483Z,94.20
2019-03-19T13:37:42.317Z,90.60
2019-03-19T13:40:12.380Z,66.00
2019-03-19T13:42:40.238Z,69.70
2019-03-19T13:45:08.526Z,77.20
2019-03-19T13:47:36.220Z,80.10
2019-03-19T13:50:05.615Z,89.00
2019-03-19T13:52:33.043Z,93.50
2019-03-19T13:55:01.194Z,90.50
2019-03-19T13:57:29.025Z,76.70
2019-03-19T13:59:56.700Z,90.70
2019-03-19T14:02:24.229Z,82.30
2019-03-19T14:04:52.143Z,82.30
2019-03-19T14:07:19.567Z,78.90
2019-03-19T14:09:47.434Z,77.80
2019-03-19T14:12:14.880Z,77.60
2019-03-19T14:14:42.782Z,78.30
2019-03-19T14:17:10.349Z,82.90
2019-03-19T14:19:37.762Z,83.50
2019-03-19T14:22:05.907Z,79.80
2019-03-19T14:24:33.719Z,81.80
2019-03-19T14:27:01.967Z,86.10
2019-03-19T14:29:29.584Z,82.30
2019-03-19T14:31:57.544Z,91.10
2019-03-19T14:34:25.762Z,96.40
2019-03-19T14:36:53.594Z,93.20
2019-03-19T14:39:22.077Z,83.20
2019-03-19T14:41:50.090Z,99.80
2019-03-19T14:44:17.993Z,84.70
2019-03-19T14:46:45.883Z,99.90
2019-03-19T14:49:14.332Z,89.30
2019-03-19T14:51:42.494Z,99.20
2019-03-19T14:54:10.724Z,83.10
2019-03-19T14:56:38.821Z,96.30
2019-03-19T14:59:06.765Z,94.20
2019-03-19T15:01:34.181Z,84.20
2019-03-19T15:04:01.589Z,74.80
2019-03-19T15:06:29.496Z,81.10
2019-03-19T15:08:57.046Z,97.20
2019-03-19T15:11:24.934Z,98.00
2019-03-19T15:13:55.176Z,99.90
2019-03-19T15:16:22.375Z,89.60
2019-03-19T15:18:49.903Z,87.30
2019-03-19T15:21:17.335Z,91.80
2019-03-19T15:23:45.778Z,92.40
2019-03-19T15:26:13.307Z,94.50
2019-03-19T15:28:41.178Z,99.90
2019-03-19T15:31:09.013Z,97.00
2019-03-19T15:33:37.009Z,88.60
2019-03-19T15:36:05.086Z,91.70
2019-03-19T15:38:33.072Z,93.50
2019-03-19T15:41:01.022Z,93.00
2019-03-19T15:43:28.337Z,93.40
2019-03-19T15:45:55.751Z,94.50
2019-03-19T15:48:23.469Z,92.70
2019-03-19T15:50:50.761Z,96.80
2019-03-19T15:53:19.105Z,93.50
2019-03-19T15:55:46.945Z,92.90
2019-03-19T15:58:15.009Z,92.70
2019-03-19T16:00:43.281Z,94.80
2019-03-19T16:03:11.479Z,91.60
2019-03-19T16:05:39.187Z,93.50
2019-03-19T16:08:07.128Z,93.50
2019-03-19T16:10:34.821Z,95.00
2019-03-19T16:13:02.638Z,91.90
2019-03-19T16:15:30.790Z,94.20
2019-03-19T16:17:58.976Z,95.10
2019-03-19T16:20:27.274Z,92.30
2019-03-19T16:22:55.121Z,95.50
2019-03-19T16:25:23.027Z,94.50
2019-03-19T16:27:51.329Z,96.80
2019-03-19T16:30:19.225Z,98.50
2019-03-19T16:32:47.182Z,95.80
2019-03-19T16:35:15.972Z,97.90
2019-03-19T16:37:43.783Z,95.50
2019-03-19T16:40:16.444Z,94.30
2019-03-19T16:42:44.926Z,95.70
2019-03-19T16:45:12.813Z,97.60
2019-03-19T16:47:40.225Z,98.20
2019-03-19T16:50:09.803Z,99.90
2019-03-19T16:52:37.251Z,99.90
2019-03-19T16:55:05.144Z,99.90
2019-03-19T16:57:32.825Z,99.90
2019-03-19T17:00:00.959Z,99.90
2019-03-19T17:02:29.434Z,99.90
2019-03-19T17:04:57.321Z,99.90
2019-03-19T17:07:25.199Z,99.90
2019-03-19T17:09:52.739Z,99.90
2019-03-19T17:12:20.353Z,99.90
2019-03-19T17:14:48.278Z,99.90
2019-03-19T17:17:16.960Z,99.90
2019-03-19T17:19:44.884Z,99.90
2019-03-19T17:22:12.643Z,99.90
2019-03-19T17:24:40.433Z,99.90
2019-03-19T17:27:08.409Z,99.90
2019-03-19T17:29:43.038Z,99.90
2019-03-19T17:32:13.145Z,99.90
2019-03-19T17:34:39.856Z,99.90
2019-03-19T17:37:07.618Z,99.90
2019-03-19T17:39:38.456Z,99.90
2019-03-19T17:42:06.311Z,99.90
2019-03-19T17:44:34.266Z,99.90
2019-03-19T17:47:01.996Z,99.90
2019-03-19T17:49:34.044Z,99.90
2019-03-19T17:52:04.427Z,99.90
2019-03-19T17:54:36.987Z,99.90
2019-03-19T17:57:05.127Z,99.90
2019-03-19T17:59:32.993Z,99.90
2019-03-19T18:02:01.264Z,99.90
2019-03-19T18:04:29.255Z,99.90
2019-03-19T18:06:57.333Z,99.90
2019-03-19T18:09:25.623Z,99.90
2019-03-19T18:11:53.685Z,99.90
2019-03-19T18:14:21.111Z,99.90
2019-03-19T18:16:48.847Z,99.90
2019-03-19T18:19:16.763Z,99.90
2019-03-19T18:21:44.065Z,99.90
2019-03-19T18:24:12.233Z,99.90
2019-03-19T18:26:41.681Z,99.90
2019-03-19T18:29:10.605Z,99.90
2019-03-19T18:31:39.034Z,99.90
2019-03-19T18:34:10.454Z,99.90
2019-03-19T18:36:36.228Z,99.90
2019-03-19T18:39:07.310Z,99.90
2019-03-19T18:41:34.909Z,99.90
2019-03-19T18:44:02.746Z,99.90
2019-03-19T18:46:31.184Z,99.90
2019-03-19T18:48:59.350Z,99.90
2019-03-19T18:51:27.224Z,99.90
2019-03-19T18:53:54.666Z,99.90
2019-03-19T18:56:22.600Z,99.90
2019-03-19T18:58:50.233Z,99.90
2019-03-19T19:01:17.996Z,99.90
2019-03-19T19:03:45.970Z,99.90
2019-03-19T19:06:13.529Z,99.90
2019-03-19T19:08:40.986Z,99.90
2019-03-19T19:11:08.941Z,99.90
2019-03-19T19:13:36.542Z,99.90
2019-03-19T19:16:04.992Z,99.90
2019-03-19T19:18:32.399Z,99.90
2019-03-19T19:20:59.554Z,99.90
2019-03-19T19:23:27.887Z,99.90
2019-03-19T19:25:55.773Z,99.90
2019-03-19T19:28:24.124Z,99.90
2019-03-19T19:30:51.816Z,99.90
2019-03-19T19:33:19.991Z,99.90
2019-03-19T19:35:47.728Z,99.90
2019-03-19T19:38:17.319Z,99.90
2019-03-19T19:40:47.465Z,99.90
2019-03-19T19:43:15.119Z,99.90
2019-03-19T19:45:43.209Z,99.90
2019-03-19T19:48:11.258Z,99.90
2019-03-19T19:50:39.437Z,99.90
2019-03-19T19:53:06.863Z,99.90
2019-03-19T19:55:35.084Z,99.90
2019-03-19T19:58:03.093Z,99.90
2019-03-19T20:00:30.732Z,99.90
2019-03-19T20:03:11.506Z,99.90
2019-03-19T20:05:31.286Z,99.90
2019-03-19T20:08:09.685Z,99.90
2019-03-19T20:10:37.763Z,99.90
2019-03-19T20:13:05.669Z,99.90
2019-03-19T20:15:33.926Z,99.90
2019-03-19T20:18:02.272Z,99.90
2019-03-19T20:20:29.859Z,99.90
2019-03-19T20:22:58.132Z,99.90
2019-03-19T20:25:26.359Z,99.90
2019-03-19T20:27:55.076Z,99.90
2019-03-19T20:30:22.682Z,99.90
2019-03-19T20:32:50.177Z,99.90
2019-03-19T20:35:18.005Z,99.90
2019-03-19T20:37:45.304Z,99.90
2019-03-19T20:40:13.506Z,99.90
2019-03-19T20:42:41.720Z,99.90
2019-03-19T20:45:10.237Z,99.90
2019-03-19T20:47:37.970Z,99.90
2019-03-19T20:50:12.625Z,99.90
2019-03-19T20:52:44.821Z,99.90
2019-03-19T20:55:12.759Z,99.90
2019-03-19T20:57:40.389Z,99.90
2019-03-19T21:00:12.007Z,99.90
2019-03-19T21:02:39.627Z,99.90
2019-03-19T21:05:07.552Z,99.90
2019-03-19T21:07:35.202Z,99.90
2019-03-19T21:10:04.521Z,99.90
2019-03-19T21:12:36.467Z,99.90
2019-03-19T21:15:05.210Z,99.90
2019-03-19T21:17:32.650Z,99.90
2019-03-19T21:20:00.498Z,99.90
2019-03-19T21:22:29.069Z,99.90
2019-03-19T21:24:57.008Z,99.90
2019-03-19T21:27:24.900Z,99.90
2019-03-19T21:29:53.917Z,99.90
2019-03-19T21:32:21.869Z,99.90
2019-03-19T21:34:49.882Z,99.90
2019-03-19T21:37:17.295Z,99.90
2019-03-19T21:39:45.112Z,99.90
2019-03-19T21:42:12.877Z,99.90
2019-03-19T21:44:40.555Z,99.90
2019-03-19T21:47:10.142Z,99.90
2019-03-19T21:49:37.887Z,99.90
2019-03-19T21:52:05.545Z,99.90
2019-03-19T21:54:33.084Z,99.90
2019-03-19T21:57:00.951Z,99.90
2019-03-19T21:59:29.022Z,99.90
2019-03-19T22:01:59.014Z,99.90
2019-03-19T22:04:26.318Z,99.90
2019-03-19T22:06:56.978Z,99.90
2019-03-19T22:09:24.567Z,99.90
2019-03-19T22:11:52.268Z,99.90
2019-03-19T22:14:20.547Z,99.90
2019-03-19T22:16:48.101Z,99.90
2019-03-19T22:19:15.868Z,99.90
2019-03-19T22:21:43.835Z,99.90
2019-03-19T22:24:11.416Z,99.90
2019-03-19T22:26:38.834Z,99.90
2019-03-19T22:29:06.660Z,99.90
2019-03-19T22:31:35.002Z,99.90
2019-03-19T22:34:14.242Z,99.90
2019-03-19T22:36:41.421Z,99.90
2019-03-19T22:39:08.960Z,99.90
2019-03-19T22:41:37.084Z,99.90
2019-03-19T22:44:05.261Z,99.90
2019-03-19T22:46:33.080Z,99.90
2019-03-19T22:49:02.584Z,99.90
2019-03-19T22:51:30.565Z,99.90
2019-03-19T22:53:58.166Z,99.90
2019-03-19T22:56:28.069Z,99.90
2019-03-19T22:58:56.126Z,99.90
2019-03-19T23:01:27.333Z,99.90
2019-03-19T23:03:55.756Z,99.90
2019-03-19T23:06:23.174Z,99.90
2019-03-19T23:08:50.829Z,99.90
2019-03-19T23:11:18.291Z,99.90
2019-03-19T23:13:47.211Z,99.90
2019-03-19T23:16:15.431Z,99.90
2019-03-19T23:18:42.965Z,99.90
2019-03-19T23:21:11.374Z,99.90
2019-03-19T23:23:39.243Z,99.90
2019-03-19T23:26:06.765Z,99.90
2019-03-19T23:28:34.799Z,99.90
2019-03-19T23:31:03.013Z,99.90
2019-03-19T23:33:30.700Z,99.90
2019-03-19T23:35:58.434Z,99.90
2019-03-19T23:38:25.945Z,99.90
2019-03-19T23:40:55.363Z,99.90
2019-03-19T23:43:23.154Z,99.90
2019-03-19T23:45:50.643Z,99.90
2019-03-19T23:48:19.072Z,99.90
2019-03-19T23:50:46.993Z,99.90
2019-03-19T23:53:14.642Z,99.90
2019-03-19T23:55:42.408Z,99.90
2019-03-19T23:58:12.069Z,99.90
